Time;durP1;ratioP1;P1;durP2;ratioP2;P2;SDS_P1;SDS_P2;PMS_P1;PMS_P2;Temp;Humidity;BMP_temperature;BMP_pressure;BME280_temperature;BME280_humidity;BME280_pressure;Samples;Min_cycle;Max_cycle;Signal;HPM_P1;HPM_P2
2023/06/21 00:00:38;;;;;;;45.95;32.45;;;;;;;20.81;85.35;100745.16;5009444;28;20224;-78
2023/06/21 00:03:06;;;;;;;53.65;32.42;;;;;;;20.81;85.17;100729.59;5009276;28;20113;-77
2023/06/21 00:05:32;;;;;;;53.90;34.45;;;;;;;20.84;84.87;100731.97;5009269;28;20355;-79
2023/06/21 00:07:58;;;;;;;48.40;31.75;;;;;;;20.76;84.72;100717.53;5009287;28;20391;-78
2023/06/21 00:10:25;;;;;;;53.33;32.60;;;;;;;20.84;84.50;100736.56;5009662;28;20095;-79
2023/06/21 00:12:51;;;;;;;49.25;31.90;;;;;;;20.77;84.74;100719.22;5009572;28;20091;-78
2023/06/21 00:15:17;;;;;;;67.07;31.80;;;;;;;20.84;84.52;100733.84;5009683;28;20105;-77
2023/06/21 00:17:43;;;;;;;44.72;30.55;;;;;;;20.82;84.11;100727.72;5009408;28;20458;-77
2023/06/21 00:20:10;;;;;;;46.90;29.80;;;;;;;20.81;84.33;100726.00;5009392;28;20109;-78
2023/06/21 00:22:36;;;;;;;53.78;28.33;;;;;;;20.71;84.54;100711.78;5009649;28;20421;-78
2023/06/21 00:25:02;;;;;;;57.03;30.15;;;;;;;20.79;84.53;100722.63;5009429;28;20037;-78
2023/06/21 00:27:28;;;;;;;50.15;26.80;;;;;;;20.76;84.17;100707.47;5009268;28;20025;-79
2023/06/21 00:29:53;;;;;;;76.97;29.38;;;;;;;20.83;83.96;100722.03;5009268;28;20030;-78
2023/06/21 00:32:19;;;;;;;43.05;25.55;;;;;;;20.78;83.72;100710.00;5009013;28;20021;-79
2023/06/21 00:34:46;;;;;;;43.40;27.20;;;;;;;20.78;83.79;100715.44;5009466;28;20026;-78
2023/06/21 00:37:15;;;;;;;39.90;26.35;;;;;;;20.73;84.32;100721.50;5009704;28;20034;-79
2023/06/21 00:39:41;;;;;;;44.10;25.58;;;;;;;20.64;84.75;100720.72;5010117;28;20116;-78
2023/06/21 00:42:07;;;;;;;46.10;25.63;;;;;;;20.60;85.36;100719.41;5009777;28;20057;-79
2023/06/21 00:44:33;;;;;;;38.17;25.58;;;;;;;20.50;85.91;100718.84;5010931;28;20033;-79
2023/06/21 00:46:58;;;;;;;39.88;25.40;;;;;;;20.50;85.75;100707.91;5011552;28;20501;-80
2023/06/21 00:49:25;;;;;;;50.30;26.30;;;;;;;20.59;85.55;100711.41;5009456;28;20030;-78
2023/06/21 00:51:57;;;;;;;40.65;24.08;;;;;;;20.52;85.54;100704.97;5009195;28;20026;-79
2023/06/21 00:54:29;;;;;;;32.97;23.23;;;;;;;20.53;85.48;100702.06;5008939;28;20034;-78
2023/06/21 00:56:56;;;;;;;31.37;24.43;;;;;;;20.57;85.06;100708.88;5009464;28;20045;-79
2023/06/21 00:59:22;;;;;;;44.35;24.83;;;;;;;20.56;85.35;100711.78;4994240;28;20379;-78
2023/06/21 01:01:48;;;;;;;47.47;24.35;;;;;;;20.54;85.54;100691.97;5012504;28;20034;-78
2023/06/21 01:04:13;;;;;;;38.65;25.33;;;;;;;20.59;84.85;100690.38;5012432;28;20025;-79
2023/06/21 01:07:03;;;;;;;42.42;24.02;;;;;;;20.63;84.82;100712.72;5012652;28;20113;-78
2023/06/21 01:09:44;;;;;;;46.70;24.23;;;;;;;20.64;84.26;100708.94;5012386;28;20038;-79
2023/06/21 01:12:44;;;;;;;43.03;23.65;;;;;;;20.62;84.37;100695.47;5012817;28;20107;-82
2023/06/21 01:15:17;;;;;;;35.65;24.08;;;;;;;20.59;84.51;100701.31;5012663;28;20029;-78
2023/06/21 01:17:44;;;;;;;42.70;25.58;;;;;;;20.56;84.82;100704.41;5012413;28;20033;-77
2023/06/21 01:20:18;;;;;;;44.08;25.85;;;;;;;20.48;85.05;100707.25;5012254;28;20401;-78
2023/06/21 01:23:06;;;;;;;45.40;27.35;;;;;;;20.50;85.49;100713.38;5012122;28;20084;-78
2023/06/21 01:26:09;;;;;;;47.05;28.20;;;;;;;20.56;85.13;100707.16;5012528;28;20026;-77
2023/06/21 01:28:47;;;;;;;;;;;;;;;20.55;84.71;100705.44;5012609;28;20474;-77
2023/06/21 01:31:15;;;;;;;49.25;32.10;;;;;;;20.38;84.74;100703.94;4994358;28;19948;-76
2023/06/21 01:33:41;;;;;;;55.13;34.83;;;;;;;20.45;85.58;100710.38;5013153;28;20034;-79
2023/06/21 01:36:09;;;;;;;52.70;35.33;;;;;;;20.48;85.54;100704.53;5012405;28;20053;-77
2023/06/21 01:38:34;;;;;;;69.38;38.33;;;;;;;20.49;85.09;100698.00;5012240;28;20033;-77
2023/06/21 01:40:59;;;;;;;66.07;36.20;;;;;;;20.53;84.90;100704.78;5012221;28;20736;-80
2023/06/21 01:43:25;;;;;;;62.70;36.90;;;;;;;20.50;84.41;100680.56;5013273;28;20025;-79
2023/06/21 01:45:53;;;;;;;64.38;36.63;;;;;;;20.56;84.42;100701.69;5012653;28;20026;-78
2023/06/21 01:48:19;;;;;;;61.35;38.70;;;;;;;20.47;84.34;100697.34;4961616;28;20041;-78
2023/06/21 01:50:45;;;;;;;69.05;38.58;;;;;;;20.50;84.43;100713.38;5012281;28;20509;-77
2023/06/21 01:53:16;;;;;;;64.22;41.67;;;;;;;20.49;84.63;100699.88;5023691;28;20033;-79
2023/06/21 01:55:44;;;;;;;80.78;42.42;;;;;;;20.42;84.74;100702.53;5015581;28;20112;-77
2023/06/21 01:58:12;;;;;;;70.18;41.63;;;;;;;20.53;84.90;100707.53;5012372;28;20042;-78
2023/06/21 02:00:38;;;;;;;80.18;44.20;;;;;;;20.58;84.36;100720.63;5011637;28;20026;-78
2023/06/21 02:03:08;;;;;;;65.32;41.30;;;;;;;20.59;83.99;100711.41;4993702;28;20462;-78
2023/06/21 02:05:34;;;;;;;70.78;43.80;;;;;;;20.62;83.59;100716.47;5011194;28;20029;-78
2023/06/21 02:08:01;;;;;;;72.00;41.83;;;;;;;20.61;83.53;100710.16;5010870;28;20410;-78
2023/06/21 02:10:27;;;;;;;100.45;44.50;;;;;;;20.62;83.13;100705.56;5010238;28;20030;-78
2023/06/21 02:12:52;;;;;;;70.15;40.65;;;;;;;20.61;83.08;100715.63;5011243;28;20037;-81
2023/06/21 02:15:19;;;;;;;68.75;41.47;;;;;;;20.62;82.84;100711.00;5016417;28;20040;-78
2023/06/21 02:17:51;;;;;;;71.25;41.80;;;;;;;20.58;83.19;100710.53;5022698;28;20409;-77
2023/06/21 02:20:18;;;;;;;60.28;41.63;;;;;;;20.57;83.27;100706.13;5011327;28;20029;-78
2023/06/21 02:22:44;;;;;;;75.35;41.90;;;;;;;20.62;83.08;100722.81;5011377;28;20040;-79
2023/06/21 02:25:11;;;;;;;67.07;42.08;;;;;;;20.61;82.73;100720.25;5011574;28;20502;-77
2023/06/21 02:27:37;;;;;;;69.38;41.72;;;;;;;20.56;82.43;100722.69;5011854;28;20025;-78
2023/06/21 02:30:04;;;;;;;69.03;43.28;;;;;;;20.58;82.54;100734.28;5012034;28;20096;-77
2023/06/21 02:32:29;;;;;;;69.57;44.08;;;;;;;20.56;82.36;100741.81;5011952;28;20115;-78
2023/06/21 02:34:55;;;;;;;77.05;44.28;;;;;;;20.52;82.32;100735.88;5011813;28;20451;-81
2023/06/21 02:37:21;;;;;;;133.05;50.47;;;;;;;20.57;82.30;100736.19;5011599;28;20025;-78
2023/06/21 02:39:46;;;;;;;79.45;43.38;;;;;;;20.57;82.09;100732.59;5011856;28;20024;-79
2023/06/21 02:42:12;;;;;;;70.60;43.38;;;;;;;20.60;82.17;100745.91;5011403;28;20104;-80
2023/06/21 02:44:37;;;;;;;76.22;44.60;;;;;;;20.51;81.63;100734.22;5011097;28;20398;-77
2023/06/21 02:47:03;;;;;;;69.07;42.05;;;;;;;20.56;81.31;100742.69;5010918;28;20474;-78
2023/06/21 02:49:30;;;;;;;85.20;42.17;;;;;;;20.51;81.42;100739.66;5010745;28;20457;-79
2023/06/21 02:51:55;;;;;;;67.22;42.40;;;;;;;20.55;81.23;100740.97;5011349;28;20034;-81
2023/06/21 02:54:21;;;;;;;71.45;43.58;;;;;;;20.59;81.08;100739.56;5016003;28;20033;-79
2023/06/21 02:56:46;;;;;;;84.22;42.72;;;;;;;20.63;80.27;100746.38;5009167;28;20126;-80
2023/06/21 02:59:12;;;;;;;76.43;43.97;;;;;;;20.68;80.25;100747.69;5012831;28;20022;-81
2023/06/21 03:01:37;;;;;;;84.40;44.42;;;;;;;20.64;80.49;100742.59;5013037;28;20027;-80
2023/06/21 03:04:03;;;;;;;73.05;43.58;;;;;;;20.70;80.19;100748.38;4994008;28;20038;-76
2023/06/21 03:06:29;;;;;;;79.05;43.05;;;;;;;20.71;79.87;100745.41;4992388;28;20092;-77
2023/06/21 03:08:57;;;;;;;77.50;44.45;;;;;;;20.66;80.54;100733.34;4993053;28;20034;-77
2023/06/21 03:11:23;;;;;;;124.53;45.78;;;;;;;20.74;79.99;100747.78;4992890;28;20030;-77
2023/06/21 03:13:48;;;;;;;79.15;44.53;;;;;;;20.70;79.67;100729.22;4991710;28;20034;-78
2023/06/21 03:16:14;;;;;;;90.22;47.60;;;;;;;20.82;79.63;100744.13;4990853;28;20033;-79
2023/06/21 03:18:39;;;;;;;95.18;46.22;;;;;;;20.82;79.48;100744.13;4990135;28;20456;-79
2023/06/21 03:21:05;;;;;;;83.75;50.90;;;;;;;20.79;79.61;100739.03;4990668;28;20026;-77
2023/06/21 03:23:31;;;;;;;99.10;50.75;;;;;;;20.81;79.57;100747.88;4990291;28;20036;-81
2023/06/21 03:25:56;;;;;;;93.10;49.35;;;;;;;20.89;79.31;100743.16;4990468;28;20022;-78
2023/06/21 03:28:22;;;;;;;91.75;48.88;;;;;;;20.92;79.05;100744.66;4991067;28;20108;-77
2023/06/21 03:30:47;;;;;;;86.25;50.88;;;;;;;20.92;79.33;100741.94;4990290;28;20030;-78
2023/06/21 03:33:13;;;;;;;83.70;51.05;;;;;;;20.96;79.29;100752.31;4990476;28;20034;-81
2023/06/21 03:35:38;;;;;;;85.93;52.95;;;;;;;20.98;79.43;100744.75;4990966;28;20026;-79
2023/06/21 03:38:04;;;;;;;87.60;52.28;;;;;;;20.94;79.33;100751.66;4991451;28;20026;-79
2023/06/21 03:40:29;;;;;;;117.80;53.95;;;;;;;21.03;79.08;100746.94;4989741;28;20502;-79
2023/06/21 03:42:54;;;;;;;86.70;51.28;;;;;;;21.04;79.02;100740.41;4990396;28;20030;-79
2023/06/21 03:45:20;;;;;;;86.55;51.78;;;;;;;21.07;79.08;100750.97;4989944;28;20077;-81
2023/06/21 03:47:45;;;;;;;94.80;55.25;;;;;;;20.96;78.89;100737.78;4990214;28;20030;-80
2023/06/21 03:50:12;;;;;;;96.45;57.45;;;;;;;20.94;79.52;100759.03;4989929;28;20038;-80
2023/06/21 03:52:37;;;;;;;94.43;58.42;;;;;;;20.91;80.09;100756.66;4989702;28;20482;-80
2023/06/21 03:55:04;;;;;;;104.40;59.90;;;;;;;20.95;80.12;100753.34;4989666;28;20099;-79
2023/06/21 03:57:30;;;;;;;105.97;61.15;;;;;;;20.95;80.12;100745.16;4988266;28;20455;-82
2023/06/21 03:59:55;;;;;;;106.43;59.42;;;;;;;20.93;80.02;100751.84;4990003;28;20030;-80
2023/06/21 04:02:21;;;;;;;98.95;56.25;;;;;;;20.88;80.42;100759.78;4989436;28;20034;-81
2023/06/21 04:04:49;;;;;;;107.90;59.20;;;;;;;20.98;80.09;100755.69;4988177;28;20066;-77
2023/06/21 04:07:18;;;;;;;88.88;55.20;;;;;;;20.99;79.79;100740.16;4991140;28;20026;-84
2023/06/21 04:09:45;;;;;;;106.55;56.15;;;;;;;21.09;79.59;100751.69;4991581;28;20023;-81
2023/06/21 04:12:11;;;;;;;92.32;53.47;;;;;;;21.25;79.45;100756.97;4988868;28;20037;-81
2023/06/21 04:14:36;;;;;;;99.88;56.50;;;;;;;21.13;78.69;100721.00;4990929;28;20077;-80
2023/06/21 04:17:02;;;;;;;157.95;56.58;;;;;;;21.38;78.15;100750.78;4990123;28;20026;-82
2023/06/21 04:19:28;;;;;;;109.10;52.75;;;;;;;21.42;78.00;100747.50;4996214;28;20198;-84
2023/06/21 04:21:53;;;;;;;112.10;52.20;;;;;;;21.56;77.14;100752.06;4991695;28;20039;-83
2023/06/21 04:24:19;;;;;;;95.68;48.00;;;;;;;21.51;77.03;100740.84;4991513;28;20023;-81
2023/06/21 04:26:44;;;;;;;87.28;45.92;;;;;;;21.60;77.20;100742.44;4991701;28;20569;-83
2023/06/21 04:29:10;;;;;;;115.43;46.95;;;;;;;21.80;76.96;100763.72;4989785;28;20530;-83
2023/06/21 04:31:37;;;;;;;108.13;43.90;;;;;;;21.84;76.13;100756.78;5001578;28;20041;-82
2023/06/21 04:34:06;;;;;;;65.18;38.92;;;;;;;21.95;75.91;100770.03;5005242;28;20026;-82
2023/06/21 04:36:31;;;;;;;91.15;41.45;;;;;;;21.99;75.56;100749.38;4999381;28;20133;-82
2023/06/21 04:38:57;;;;;;;71.03;36.35;;;;;;;22.15;75.58;100779.28;4995080;28;20037;-86
2023/06/21 04:41:22;;;;;;;83.50;36.78;;;;;;;22.11;75.67;100777.97;4999785;28;20026;-84
2023/06/21 04:43:48;;;;;;;74.00;36.53;;;;;;;22.17;75.64;100780.75;5004155;28;20031;-88
2023/06/21 04:46:13;;;;;;;62.92;34.17;;;;;;;22.25;75.40;100774.31;4995441;28;20109;-84
2023/06/21 04:48:39;;;;;;;64.03;31.98;;;;;;;22.18;75.11;100766.03;4994042;28;20037;-88
2023/06/21 04:51:05;;;;;;;60.30;30.40;;;;;;;22.32;75.05;100782.59;4993756;28;20034;-86
2023/06/21 04:53:30;;;;;;;54.53;31.63;;;;;;;22.21;75.03;100753.81;4994871;28;20030;-85
2023/06/21 04:55:59;;;;;;;53.28;30.33;;;;;;;22.33;74.77;100773.31;4993266;28;20574;-84
2023/06/21 04:58:25;;;;;;;51.20;31.30;;;;;;;22.50;74.88;100788.44;5012891;28;20053;-79
2023/06/21 05:00:50;;;;;;;53.90;29.80;;;;;;;22.48;75.10;100788.63;5031777;28;20037;-81
2023/06/21 05:03:16;;;;;;;56.92;28.98;;;;;;;22.62;75.10;100789.59;5031684;28;20060;-80
2023/06/21 05:05:41;;;;;;;72.97;29.88;;;;;;;22.63;74.88;100770.19;5031810;28;20028;-84
2023/06/21 05:08:07;;;;;;;54.47;27.83;;;;;;;22.81;75.16;100788.94;5031458;28;20037;-79
2023/06/21 05:10:33;;;;;;;73.82;28.00;;;;;;;22.88;74.71;100778.84;5013654;28;20413;-77
2023/06/21 05:12:58;;;;;;;61.95;26.80;;;;;;;22.94;74.61;100771.69;5032691;28;20478;-86
2023/06/21 05:15:24;;;;;;;60.33;27.38;;;;;;;23.04;73.58;100789.50;5018094;28;20033;-87
2023/06/21 05:17:49;;;;;;;58.88;26.92;;;;;;;23.10;73.32;100780.47;5033986;28;20044;-82
2023/06/21 05:20:15;;;;;;;51.20;24.25;;;;;;;23.21;72.85;100784.53;5033572;28;20022;-81
2023/06/21 05:22:43;;;;;;;52.97;23.35;;;;;;;23.22;72.84;100791.72;5001245;28;20041;-86
2023/06/21 05:25:12;;;;;;;60.03;23.60;;;;;;;23.31;72.20;100795.97;5033819;28;20033;-82
2023/06/21 05:27:38;;;;;;;44.40;21.33;;;;;;;23.24;72.62;100764.91;5033357;28;20029;-88
2023/06/21 05:30:04;;;;;;;50.55;21.20;;;;;;;23.43;72.21;100788.91;5057121;28;20028;-88
2023/06/21 05:32:30;;;;;;;61.80;24.15;;;;;;;23.49;72.23;100774.34;5027832;28;20045;-90
2023/06/21 05:34:55;;;;;;;48.72;21.50;;;;;;;23.58;72.40;100781.34;5036492;28;20026;-88
2023/06/21 05:37:21;;;;;;;52.72;20.38;;;;;;;23.73;72.10;100784.78;5016533;28;20025;-88
2023/06/21 05:39:47;;;;;;;53.05;21.27;;;;;;;23.85;71.79;100783.13;5032723;28;20071;-88
2023/06/21 05:42:12;;;;;;;50.42;19.70;;;;;;;23.90;70.96;100773.44;5033742;28;20549;-88
2023/06/21 05:44:39;;;;;;;47.47;19.55;;;;;;;24.06;70.18;100795.03;5032717;28;20025;-88
2023/06/21 05:47:05;;;;;;;40.67;18.70;;;;;;;24.15;69.65;100791.06;5036287;28;20026;-90
2023/06/21 05:49:30;;;;;;;37.10;18.30;;;;;;;24.18;68.85;100782.41;5032470;28;20037;-89
2023/06/21 05:51:56;;;;;;;54.85;19.05;;;;;;;24.21;68.23;100766.34;5032892;28;20033;-88
2023/06/21 05:54:21;;;;;;;49.90;18.35;;;;;;;24.46;68.27;100795.97;4970749;28;20047;-90
2023/06/21 05:56:49;;;;;;;56.03;18.48;;;;;;;24.57;67.98;100781.56;4969971;28;20054;-90
2023/06/21 05:59:14;;;;;;;51.47;18.35;;;;;;;24.63;67.25;100780.72;4961695;28;20101;-89
2023/06/21 06:01:40;;;;;;;55.13;21.17;;;;;;;24.68;66.66;100772.66;4935259;29;20038;-88
2023/06/21 06:04:05;;;;;;;39.83;18.20;;;;;;;24.76;66.56;100786.22;4951130;29;20086;-88
2023/06/21 06:06:39;;;;;;;49.97;19.48;;;;;;;24.87;65.96;100778.19;4935439;29;20043;-89
2023/06/21 06:09:09;;;;;;;39.72;16.98;;;;;;;24.83;65.29;100762.34;4950957;29;20070;-88
2023/06/21 06:11:35;;;;;;;32.20;16.80;;;;;;;24.97;65.23;100766.75;4935197;29;20522;-88
2023/06/21 06:14:01;;;;;;;55.00;18.13;;;;;;;25.19;64.87;100792.09;4956113;29;20047;-89
2023/06/21 06:16:27;;;;;;;48.67;17.92;;;;;;;25.26;64.75;100779.13;4942550;29;20420;-88
2023/06/21 06:18:53;;;;;;;38.20;15.88;;;;;;;25.28;64.08;100779.78;4940861;28;20046;-83
2023/06/21 06:21:21;;;;;;;43.58;16.65;;;;;;;25.37;63.17;100784.00;4971045;28;20049;-82
2023/06/21 06:23:51;;;;;;;40.35;18.45;;;;;;;25.42;63.40;100781.41;4974632;28;20026;-83
2023/06/21 06:26:27;;;;;;;36.78;17.67;;;;;;;25.51;63.50;100771.03;5038346;28;20103;-81
2023/06/21 06:28:54;;;;;;;50.30;17.70;;;;;;;25.68;63.33;100773.09;5037991;28;20399;-82
2023/06/21 06:31:24;;;;;;;41.83;21.08;;;;;;;25.75;62.47;100784.03;5031808;28;20486;-80
2023/06/21 06:33:50;;;;;;;37.58;17.92;;;;;;;25.89;62.41;100783.78;5030733;28;20030;-80
2023/06/21 06:36:16;;;;;;;47.67;22.17;;;;;;;25.97;61.98;100786.25;5030867;28;20036;-80
2023/06/21 06:38:42;;;;;;;50.25;19.58;;;;;;;26.01;61.40;100780.31;5030970;28;20116;-81
2023/06/21 06:41:07;;;;;;;52.95;20.27;;;;;;;26.14;62.00;100783.00;5032095;28;20902;-81
2023/06/21 06:43:33;;;;;;;46.22;20.08;;;;;;;26.16;60.96;100769.84;5032375;28;20117;-80
2023/06/21 06:45:59;;;;;;;54.15;21.42;;;;;;;26.27;60.13;100791.19;5039438;28;20022;-81
2023/06/21 06:48:26;;;;;;;53.15;21.38;;;;;;;26.21;59.95;100770.00;5038406;28;20068;-81
2023/06/21 06:50:52;;;;;;;40.05;20.52;;;;;;;26.31;59.90;100785.00;5029759;28;20037;-78
2023/06/21 06:53:18;;;;;;;50.42;17.90;;;;;;;26.30;59.56;100782.47;4994445;28;20091;-80
2023/06/21 06:55:43;;;;;;;30.50;17.30;;;;;;;26.34;59.63;100770.78;5029297;28;20419;-78
2023/06/21 06:58:09;;;;;;;48.65;20.52;;;;;;;26.45;59.87;100783.81;5030792;28;20038;-79
2023/06/21 07:00:35;;;;;;;39.08;18.58;;;;;;;26.49;59.59;100774.03;5013601;28;20037;-83
2023/06/21 07:03:00;;;;;;;33.90;19.27;;;;;;;26.49;59.42;100763.00;5030954;28;20099;-81
2023/06/21 07:05:26;;;;;;;38.85;19.15;;;;;;;26.70;59.49;100772.78;5032107;28;20033;-84
2023/06/21 07:07:53;;;;;;;32.92;17.52;;;;;;;26.85;59.18;100778.81;5032466;28;20072;-82
2023/06/21 07:10:19;;;;;;;35.75;16.30;;;;;;;26.94;58.70;100777.47;5039851;28;20031;-83
2023/06/21 07:12:45;;;;;;;32.25;15.98;;;;;;;27.02;58.68;100768.91;5035736;28;20034;-86
2023/06/21 07:15:11;;;;;;;43.42;15.27;;;;;;;27.14;58.04;100773.66;5033470;28;20053;-79
2023/06/21 07:17:36;;;;;;;45.55;16.05;;;;;;;27.25;57.87;100773.72;5034785;28;20486;-79
2023/06/21 07:20:03;;;;;;;38.22;13.85;;;;;;;27.35;57.18;100770.44;4982994;28;20046;-85
2023/06/21 07:22:28;;;;;;;29.00;14.30;;;;;;;27.47;56.70;100774.13;5026607;28;20013;-87
2023/06/21 07:24:53;;;;;;;38.17;15.23;;;;;;;27.52;56.64;100752.19;5025127;28;20030;-89
2023/06/21 07:27:19;;;;;;;39.83;15.80;;;;;;;27.64;56.50;100755.00;5012860;28;20030;-83
2023/06/21 07:29:45;;;;;;;31.63;15.45;;;;;;;27.74;56.67;100750.59;5013902;28;20065;-86
2023/06/21 07:32:10;;;;;;;58.00;14.82;;;;;;;27.80;55.35;100757.09;5011514;28;20025;-82
2023/06/21 07:34:36;;;;;;;16.13;8.13;;;;;;;27.83;52.19;100749.19;5012456;28;20034;-88
2023/06/21 07:37:01;;;;;;;65.57;13.05;;;;;;;27.82;50.57;100725.41;5006620;28;20026;-93
2023/06/21 07:39:27;;;;;;;23.60;10.00;;;;;;;28.08;51.41;100758.22;5033798;28;20026;-83
2023/06/21 07:41:54;;;;;;;33.97;10.48;;;;;;;28.16;51.58;100757.03;5033783;28;20056;-89
2023/06/21 07:44:20;;;;;;;29.17;14.85;;;;;;;28.15;53.21;100757.25;5027494;28;20021;-87
2023/06/21 07:46:51;;;;;;;28.40;13.25;;;;;;;28.25;53.28;100757.53;5033823;28;20041;-85
2023/06/21 07:49:17;;;;;;;29.25;14.43;;;;;;;28.20;53.13;100732.50;5021767;28;20028;-84
2023/06/21 07:51:42;;;;;;;32.60;13.40;;;;;;;28.49;53.15;100759.25;5013447;28;20030;-79
2023/06/21 07:54:08;;;;;;;19.20;9.48;;;;;;;28.56;51.55;100765.53;5011911;28;20669;-80
2023/06/21 07:56:36;;;;;;;19.75;8.93;;;;;;;28.52;47.75;100764.31;5011898;28;20494;-86
2023/06/21 07:59:01;;;;;;;28.40;8.38;;;;;;;28.34;47.21;100728.44;5012450;28;20120;-83
2023/06/21 08:01:27;;;;;;;15.05;7.80;;;;;;;28.61;48.01;100757.34;5012552;28;20172;-86
2023/06/21 08:03:53;;;;;;;21.10;10.65;;;;;;;28.71;48.65;100746.56;5011341;28;20056;-88
2023/06/21 08:06:18;;;;;;;31.92;12.60;;;;;;;28.89;49.97;100751.97;5013145;28;20054;-90
2023/06/21 08:08:44;;;;;;;19.52;9.63;;;;;;;28.77;49.78;100709.59;5014786;28;20041;-90
2023/06/21 08:11:10;;;;;;;18.60;8.77;;;;;;;28.83;47.75;100730.78;5019553;28;20391;-90
2023/06/21 08:13:38;;;;;;;10.70;7.60;;;;;;;29.09;46.38;100755.19;5006142;28;20044;-90
2023/06/21 08:16:04;;;;;;;13.13;7.72;;;;;;;29.12;44.79;100743.63;5005299;28;20128;-90
2023/06/21 08:18:29;;;;;;;20.70;8.70;;;;;;;29.31;45.38;100755.44;5036507;28;20026;-91
2023/06/21 08:20:55;;;;;;;21.48;9.80;;;;;;;29.32;44.51;100720.25;5019307;28;20030;-93
2023/06/21 08:23:22;;;;;;;31.90;9.10;;;;;;;29.38;43.60;100713.72;5005036;28;20073;-91
2023/06/21 08:25:48;;;;;;;16.75;8.75;;;;;;;29.64;43.00;100727.00;5012543;28;20077;-84
2023/06/21 08:28:14;;;;;;;22.08;8.55;;;;;;;29.98;43.46;100748.22;4993608;28;20037;-85
2023/06/21 08:30:39;;;;;;;32.08;9.55;;;;;;;29.88;44.50;100748.00;5011603;28;20032;-82
2023/06/21 08:33:05;;;;;;;27.60;9.75;;;;;;;29.70;48.19;100745.41;5012739;28;20739;-88
2023/06/21 08:35:30;;;;;;;17.45;9.95;;;;;;;29.58;49.50;100739.91;5013359;28;20044;-95
2023/06/21 08:37:59;;;;;;;20.65;10.98;;;;;;;29.52;51.04;100760.31;5002124;28;20030;-92
2023/06/21 08:40:27;;;;;;;27.50;11.00;;;;;;;29.14;52.24;100769.16;5012554;28;20038;-87
2023/06/21 08:42:56;;;;;;;42.17;11.63;;;;;;;28.93;52.81;100761.47;5011432;28;20133;-90
2023/06/21 08:45:22;;;;;;;35.88;11.45;;;;;;;28.98;52.67;100742.22;5015171;28;20105;-95
2023/06/21 08:47:49;;;;;;;28.80;12.32;;;;;;;28.93;52.80;100741.22;4998764;28;20061;-93
2023/06/21 08:50:19;;;;;;;29.30;11.18;;;;;;;28.97;53.24;100754.38;4995517;28;20026;-93
2023/06/21 08:52:45;;;;;;;24.08;10.75;;;;;;;28.77;53.13;100756.69;5008685;28;20037;-85
2023/06/21 08:55:16;;;;;;;27.33;10.48;;;;;;;28.74;54.77;100767.38;5009423;28;20209;-89
2023/06/21 08:57:50;;;;;;;14.55;9.02;;;;;;;28.81;54.14;100759.78;5010694;28;20057;-93
2023/06/21 09:00:20;;;;;;;23.25;10.07;;;;;;;28.72;54.57;100748.22;5009198;28;20041;-84
2023/06/21 09:02:55;;;;;;;27.98;9.65;;;;;;;28.87;54.96;100765.19;4992032;28;20127;-86
2023/06/21 09:05:42;;;;;;;34.20;11.35;;;;;;;28.86;53.38;100749.69;4990447;28;20022;-83
2023/06/21 09:08:08;;;;;;;19.42;10.15;;;;;;;29.19;52.54;100765.66;5011480;28;20426;-83
2023/06/21 09:10:36;;;;;;;11.50;8.45;;;;;;;29.25;49.39;100763.88;5012589;28;20037;-85
2023/06/21 09:13:03;;;;;;;20.83;9.32;;;;;;;29.15;50.35;100754.22;5010864;28;20160;-82
2023/06/21 09:15:34;;;;;;;16.40;9.07;;;;;;;29.17;51.20;100768.66;5022023;28;20038;-88
2023/06/21 09:18:00;;;;;;;14.27;9.05;;;;;;;28.97;51.37;100740.50;5009799;28;20081;-91
2023/06/21 09:20:29;;;;;;;61.63;13.80;;;;;;;29.11;51.33;100768.81;4997850;28;20078;-84
2023/06/21 09:22:59;;;;;;;20.65;9.77;;;;;;;29.09;51.41;100770.97;4991739;28;20046;-87
2023/06/21 09:25:26;;;;;;;30.52;10.10;;;;;;;28.99;49.36;100754.94;4996198;28;20113;-84
2023/06/21 09:27:53;;;;;;;25.70;9.50;;;;;;;28.92;48.60;100762.56;4995102;28;20185;-85
2023/06/21 09:30:20;;;;;;;28.95;10.38;;;;;;;29.09;48.26;100770.97;4983254;28;20246;-85
2023/06/21 09:32:46;;;;;;;19.95;8.75;;;;;;;28.95;48.39;100759.31;4998309;28;20046;-91
2023/06/21 09:35:13;;;;;;;15.32;8.85;;;;;;;28.89;48.63;100742.81;4987194;28;20140;-87
2023/06/21 09:37:39;;;;;;;50.58;11.40;;;;;;;29.01;49.47;100747.25;5000514;28;20491;-89
2023/06/21 09:40:06;;;;;;;29.75;9.48;;;;;;;28.98;49.11;100742.22;4981446;28;20031;-87
2023/06/21 09:42:35;;;;;;;28.10;10.60;;;;;;;29.33;49.07;100766.25;5003951;28;20050;-85
2023/06/21 09:45:00;;;;;;;27.42;9.38;;;;;;;29.49;48.89;100762.72;4992877;28;20030;-86
2023/06/21 09:47:30;;;;;;;26.83;8.27;;;;;;;29.55;48.84;100761.75;4996230;28;20458;-86
2023/06/21 09:49:57;;;;;;;24.88;8.80;;;;;;;29.60;48.34;100757.13;4996930;28;20077;-90
2023/06/21 09:52:22;;;;;;;18.77;9.38;;;;;;;29.60;47.26;100757.13;5019201;28;20480;-90
2023/06/21 09:54:50;;;;;;;23.38;9.57;;;;;;;29.63;47.47;100755.81;5001534;28;20053;-91
2023/06/21 09:57:15;;;;;;;36.20;11.43;;;;;;;29.55;47.97;100732.09;5020634;28;20042;-91
2023/06/21 09:59:41;;;;;;;41.10;9.93;;;;;;;29.72;46.59;100736.88;5023245;28;20038;-90
2023/06/21 10:02:07;;;;;;;62.22;13.82;;;;;;;29.55;48.03;100745.09;5024222;28;20120;-90
2023/06/21 10:04:43;;;;;;;49.17;12.73;;;;;;;29.32;47.75;100732.19;4980830;28;20038;-89
2023/06/21 10:07:12;;;;;;;17.63;8.55;;;;;;;29.15;48.99;100745.91;4983435;28;20078;-90
2023/06/21 10:09:38;;;;;;;35.10;10.20;;;;;;;29.06;50.53;100766.75;4964933;28;20031;-90
2023/06/21 10:12:05;;;;;;;24.40;10.32;;;;;;;28.85;52.21;100752.69;4974224;28;20131;-92
2023/06/21 10:14:31;;;;;;;38.13;11.32;;;;;;;29.11;51.96;100758.56;4960462;28;20035;-93
2023/06/21 10:16:57;;;;;;;23.13;10.10;;;;;;;29.31;51.17;100762.91;4960032;29;20138;-91
2023/06/21 10:19:25;;;;;;;16.08;8.60;;;;;;;29.43;51.21;100749.84;4945234;29;20039;-91
2023/06/21 10:21:57;;;;;;;18.17;8.90;;;;;;;29.60;50.46;100750.78;4939703;29;20107;-91
2023/06/21 10:24:25;;;;;;;;;;;;;;;29.66;50.42;100745.06;4919098;29;20046;-89
2023/06/21 10:26:52;;;;;;;35.80;9.38;;;;;;;29.56;50.34;100730.16;4924284;29;19918;-91
2023/06/21 10:29:18;;;;;;;41.95;10.35;;;;;;;29.57;50.22;100724.38;4922132;29;20138;-91
2023/06/21 10:31:46;;;;;;;30.80;8.27;;;;;;;29.75;51.93;100737.22;4937970;29;20059;-91
2023/06/21 10:34:18;;;;;;;18.25;8.68;;;;;;;29.78;51.32;100733.09;4938498;29;20154;-91
2023/06/21 10:36:51;;;;;;;21.65;8.57;;;;;;;29.55;51.98;100725.69;4922966;29;20075;-92
2023/06/21 10:39:17;;;;;;;30.95;10.07;;;;;;;29.61;54.22;100752.44;4924748;29;20063;-91
2023/06/21 10:41:43;;;;;;;31.67;10.43;;;;;;;29.34;56.04;100746.63;4924678;29;20047;-91
2023/06/21 10:44:10;;;;;;;30.73;10.60;;;;;;;29.23;57.62;100730.00;4943009;29;20103;-90
2023/06/21 10:46:41;;;;;;;20.20;9.95;;;;;;;29.32;58.85;100740.50;4959743;29;20031;-90
2023/06/21 10:49:07;;;;;;;20.00;8.60;;;;;;;29.25;55.37;100733.41;4960016;28;20086;-90
2023/06/21 10:51:54;;;;;;;21.60;9.70;;;;;;;29.30;55.46;100716.88;4959671;29;20043;-91
2023/06/21 10:54:20;;;;;;;15.18;8.60;;;;;;;29.33;54.97;100725.53;4924692;29;20040;-90
2023/06/21 10:56:46;;;;;;;25.92;8.80;;;;;;;29.60;54.23;100739.69;4939287;29;20062;-90
2023/06/21 10:59:12;;;;;;;14.13;8.85;;;;;;;29.61;54.72;100736.66;4940532;29;20546;-90
2023/06/21 11:01:38;;;;;;;19.60;8.57;;;;;;;29.58;53.10;100726.06;4960101;28;20047;-91
2023/06/21 11:04:04;;;;;;;40.08;9.73;;;;;;;29.62;52.49;100726.41;4969086;28;20131;-90
2023/06/21 11:06:33;;;;;;;20.02;8.73;;;;;;;29.56;52.92;100732.94;4985644;28;20037;-92
2023/06/21 11:09:16;;;;;;;15.27;8.75;;;;;;;29.41;53.71;100730.72;4979523;28;20073;-92
2023/06/21 11:11:52;;;;;;;20.17;8.95;;;;;;;29.42;53.24;100709.34;4995785;28;20090;-93